28013G20KT

Amery WI 5 Day weather forecast - LocalConditions.com

... P6SM BKN050 OVC090 FM020200 22010KT P6SM BKN250 FM020600 26012G18KT P6SM SCT250 WS020/30045KT FM021500 28013G20KT P6SM SKC ...

28013g20kt

Airport Information for MOUNTAIN HIDE-AWAY Airport, 3PS4

(24.9 nm NE from 3PS4). TAF AMD KUNV 120321Z 1203/1224 28009KT P6SM BKN100. FM120500 28013G20KT P6SM OVC050. FM121000 26005KT P6SM ...

28013g20kt

01-Jan-11 N145SM Eurocopter ... - FAA helicopter accident reports

1 Jan 2011 ... ... 0 Unk: WEATHER: METAR 012229Z AUTO 28013G20KT 7SM OVC15 M15/ M17 A2990 OTHER DATA Activity: Unknown Phase: Approach ...

28013g20kt

St. Catharines Niagara District Airport (YCM/CYSN) | Arrivals ...

CYSN 121700Z 28013G20KT 210V300 15SM BKN036 13/06 A2998 RMK SC5 SLP154, 2019-10-12 17:00:00. Day: 12th; Time: 17:00 UTC; Wind direction: 280  ...

28013g20kt

Historical Weather on Monday, December 2, 2019 at Calgary ...

Report Type: Automatic Station. Dew Pt.: 14°F. Gust Speed: 23.0 mph. Raw: CYBW 022000Z AUTO 28013G20KT 9SM BKN210 02/M10 A2968 RMK SLP093  ...

28013g20kt

Document: 6224 | Created: 22:45 08/08/2019 UTC | Page: 01 ...

... 24011KT 10SM FEW010 FEW100 SCT150 20/16 A2992 RMK AO2 SLP130 T02000161 KMKE 082152Z 28013G20KT 10SM FEW060 27/10 A2986 RMK AO2 ...

28013g20kt

45

... Hillside METAR MBRN 130100Z 28013G20KT 05/M07 RMK ROAD SFC TEMP 45F Two Medicine Bridge METAR MBRN 130115Z 28014G20KT 05/M07 RMK ...

28013g20kt

WebWx - METARs form results

KSQL 121847Z 28013G20KT 10SM SCT022 BKN035 14/09 A2994 KSTS 121853Z 34018G26KT 10SM BKN040 14/06 A2991 RMK AO2 PK WND 33026/ 1850 ...

28013g20kt

National Weather Service Text Product Display

31 Dec 2019 ... ... METAR K4BM 181130Z AUTO 27014G20KT 10SM CLR M12/M25 A3010 RMK AO2 METAR K4BM 181112Z AUTO 28013G20KT 10SM CLR ...

28013g20kt

Nearby METAR

Cloud details: Partly cloudy 3100 ft. Mostly cloudy 5000 ft. 2020/02/08 01:15 KXLL 080115Z AUTO 28013G20KT 10SM SCT031 BKN050 01/M03 A2962 RMK  ...

28013g20kt

National Weather Service Text Product Display

31 Dec 2019 ... ... METAR K4BM 181112Z AUTO 28013G20KT 10SM CLR M12/M26 A3008 RMK AO2 METAR K4BM 181054Z AUTO 28015G19KT 230V290 ...

28013g20kt

####018001770#### SAEU KAWN 080500 RRW METAR EGAA ...

... AUTO 28013G20KT 10SM -RA FEW010 BKN048 OVC060 08/06 A3009 RMK AO2 P0005= KELZ 080522Z AUTO 28007KT 10SM BKN018 M10/M12 A2977 ...

28013g20kt

March

30 Mar 2012 ... broken clouds at 5000 feet AGL Weather: no significant weather forecast for this period. TAF (coded): FM031700 28013G20KT P6SM BKN050

28013g20kt

Comments



Subscribe prodbersromopa.cf